Time;durP1;ratioP1;P1;durP2;ratioP2;P2;SDS_P1;SDS_P2;PMS_P1;PMS_P2;Temp;Humidity;BMP_temperature;BMP_pressure;BME280_temperature;BME280_humidity;BME280_pressure;Samples;Min_cycle;Max_cycle;Signal;HPM_P1;HPM_P2
2022/08/06 00:00:06;;;;;;;1.37;1.27;;;23.50;58.10;;;;;;5073055;28;20498;-62
2022/08/06 00:02:33;;;;;;;1.10;0.97;;;23.50;58.20;;;;;;5073106;28;20451;-62
2022/08/06 00:05:01;;;;;;;1.43;1.33;;;23.50;58.30;;;;;;5072554;28;20518;-63
2022/08/06 00:07:30;;;;;;;1.40;1.40;;;23.50;58.30;;;;;;5072019;28;20543;-62
2022/08/06 00:09:57;;;;;;;1.10;1.10;;;23.40;58.40;;;;;;5071835;28;20876;-63
2022/08/06 00:12:24;;;;;;;1.60;1.50;;;23.40;58.40;;;;;;5071670;28;20537;-62
2022/08/06 00:14:51;;;;;;;1.30;1.23;;;23.40;58.40;;;;;;5071233;28;20513;-62
2022/08/06 00:17:20;;;;;;;1.47;1.30;;;23.40;58.60;;;;;;5071291;28;20837;-62
2022/08/06 00:19:47;;;;;;;2.43;1.20;;;23.40;58.60;;;;;;5071873;28;20827;-62
2022/08/06 00:22:14;;;;;;;2.90;1.30;;;23.40;58.80;;;;;;5075295;28;20896;-62
2022/08/06 00:24:42;;;;;;;0.90;0.90;;;23.40;58.80;;;;;;5074906;28;20960;-62
2022/08/06 00:27:09;;;;;;;2.37;1.40;;;23.40;58.90;;;;;;5075390;28;20478;-63
2022/08/06 00:29:36;;;;;;;1.30;1.20;;;23.50;59.10;;;;;;5075365;28;20455;-61
2022/08/06 00:32:03;;;;;;;2.63;1.67;;;23.40;59.10;;;;;;5074708;28;20483;-62
2022/08/06 00:34:29;;;;;;;1.93;1.40;;;23.40;59.20;;;;;;5074753;28;20538;-63
2022/08/06 00:36:56;;;;;;;1.50;1.40;;;23.40;59.40;;;;;;5074465;28;20537;-61
2022/08/06 00:39:23;;;;;;;1.30;1.30;;;23.40;59.40;;;;;;5074614;28;20459;-62
2022/08/06 00:41:51;;;;;;;0.83;0.83;;;23.40;59.50;;;;;;5075026;28;20493;-62
2022/08/06 00:44:18;;;;;;;1.30;1.20;;;23.40;59.50;;;;;;5074441;28;20487;-62
2022/08/06 00:46:46;;;;;;;1.20;1.10;;;23.40;59.80;;;;;;5075195;28;20491;-63
2022/08/06 00:49:13;;;;;;;1.30;1.20;;;23.30;59.80;;;;;;5074713;28;20513;-62
2022/08/06 00:51:41;;;;;;;1.90;1.33;;;23.30;59.70;;;;;;5074189;28;20871;-62
2022/08/06 00:54:08;;;;;;;1.00;1.00;;;23.30;59.80;;;;;;5073688;28;21166;-62
2022/08/06 00:56:34;;;;;;;1.43;1.23;;;23.20;60.00;;;;;;5073950;28;20471;-61
2022/08/06 00:59:03;;;;;;;2.13;1.13;;;23.20;60.10;;;;;;5073997;28;20491;-61
2022/08/06 01:01:30;;;;;;;1.30;1.20;;;23.20;60.40;;;;;;5073772;28;20486;-62
2022/08/06 01:03:57;;;;;;;1.47;1.40;;;23.20;60.70;;;;;;5073741;28;20487;-61
2022/08/06 01:06:24;;;;;;;1.30;1.13;;;23.20;61.00;;;;;;5073280;28;20870;-62
2022/08/06 01:08:51;;;;;;;1.43;1.33;;;23.10;60.80;;;;;;5073821;28;20555;-61
2022/08/06 01:11:18;;;;;;;3.70;1.50;;;23.10;61.10;;;;;;5073916;28;20494;-62
2022/08/06 01:13:44;;;;;;;1.63;1.53;;;23.10;61.10;;;;;;5073676;28;21022;-62
2022/08/06 01:16:18;;;;;;;1.27;1.23;;;23.10;61.20;;;;;;5073272;28;20556;-62
2022/08/06 01:18:52;;;;;;;3.13;1.43;;;23.10;61.10;;;;;;5073758;28;20813;-63
2022/08/06 01:21:36;;;;;;;2.07;1.70;;;23.10;61.20;;;;;;5073467;28;20463;-62
2022/08/06 01:24:24;;;;;;;1.70;1.60;;;23.00;61.20;;;;;;5073656;28;20581;-63
2022/08/06 01:27:00;;;;;;;1.63;1.53;;;23.00;61.30;;;;;;5073070;28;20566;-61
2022/08/06 01:29:33;;;;;;;1.30;1.30;;;23.00;61.40;;;;;;5073354;28;20542;-62
2022/08/06 01:32:06;;;;;;;1.50;1.30;;;23.00;61.50;;;;;;5073361;28;20455;-61
2022/08/06 01:34:37;;;;;;;1.40;1.30;;;23.00;61.60;;;;;;5072951;28;20494;-62
2022/08/06 01:37:13;;;;;;;1.30;1.20;;;23.00;61.60;;;;;;5072847;28;20881;-61
2022/08/06 01:39:41;;;;;;;2.10;1.90;;;23.00;61.60;;;;;;5073349;28;20486;-62
2022/08/06 01:42:10;;;;;;;1.30;1.30;;;23.00;61.60;;;;;;5073040;28;20486;-62
2022/08/06 01:44:42;;;;;;;1.30;1.30;;;22.90;61.50;;;;;;5072864;28;20451;-63
2022/08/06 01:47:12;;;;;;;0.90;0.90;;;22.90;61.70;;;;;;5073116;28;20483;-62
2022/08/06 01:49:42;;;;;;;1.30;1.20;;;22.90;62.00;;;;;;5072823;28;20554;-61
2022/08/06 01:52:11;;;;;;;2.87;1.23;;;22.90;62.10;;;;;;5072601;28;20538;-62
2022/08/06 01:54:43;;;;;;;1.60;1.30;;;22.80;62.10;;;;;;5072750;28;20510;-62
2022/08/06 01:57:12;;;;;;;1.20;1.10;;;22.80;62.40;;;;;;5072734;28;20461;-62
2022/08/06 01:59:46;;;;;;;1.20;1.20;;;22.80;62.40;;;;;;5072735;28;20520;-63
2022/08/06 02:02:19;;;;;;;1.30;1.20;;;22.80;62.60;;;;;;5072717;28;20452;-60
2022/08/06 02:04:48;;;;;;;2.07;1.23;;;22.80;62.70;;;;;;5072536;28;20562;-62
2022/08/06 02:07:16;;;;;;;1.73;1.17;;;22.80;62.70;;;;;;5073576;28;20518;-62
2022/08/06 02:09:47;;;;;;;3.40;2.23;;;22.80;62.70;;;;;;5073722;28;20481;-61
2022/08/06 02:12:18;;;;;;;3.73;1.20;;;22.80;62.70;;;;;;5072770;28;20541;-62
2022/08/06 02:14:49;;;;;;;1.37;1.00;;;22.70;62.80;;;;;;5072063;28;20475;-61
2022/08/06 02:17:18;;;;;;;1.10;1.00;;;22.70;63.20;;;;;;5072486;28;20473;-61
2022/08/06 02:19:48;;;;;;;2.77;1.30;;;22.70;63.30;;;;;;5072621;28;20876;-63
2022/08/06 02:22:16;;;;;;;1.90;1.27;;;22.60;63.20;;;;;;5072412;28;20513;-62
2022/08/06 02:24:44;;;;;;;1.50;1.47;;;22.70;63.30;;;;;;5072306;28;20824;-63
2022/08/06 02:27:13;;;;;;;2.20;1.53;;;22.70;63.30;;;;;;5072380;28;20525;-62
2022/08/06 02:29:42;;;;;;;1.90;1.50;;;22.60;63.20;;;;;;5072576;28;20463;-63
2022/08/06 02:32:13;;;;;;;1.83;1.23;;;22.40;63.90;;;;;;5072054;28;20478;-62
2022/08/06 02:34:40;;;;;;;2.17;1.60;;;22.40;64.20;;;;;;5072119;28;20462;-62
2022/08/06 02:37:13;;;;;;;1.13;1.13;;;22.40;64.30;;;;;;5072723;28;20808;-62
2022/08/06 02:39:45;;;;;;;1.63;1.53;;;22.40;64.50;;;;;;5072506;28;20987;-63
2022/08/06 02:42:18;;;;;;;1.60;1.50;;;22.40;64.60;;;;;;5071912;28;20975;-62
2022/08/06 02:44:53;;;;;;;1.70;1.50;;;22.40;64.90;;;;;;5071581;28;20894;-61
2022/08/06 02:47:26;;;;;;;1.70;1.60;;;22.40;65.00;;;;;;5072289;28;20569;-61
2022/08/06 02:49:58;;;;;;;1.57;1.43;;;22.40;65.20;;;;;;5072457;28;21034;-61
2022/08/06 02:52:32;;;;;;;1.37;1.17;;;22.40;65.20;;;;;;5072065;28;20491;-62
2022/08/06 02:55:10;;;;;;;3.00;1.23;;;22.50;65.50;;;;;;5071631;28;20507;-62
2022/08/06 02:57:41;;;;;;;1.23;1.23;;;22.50;65.50;;;;;;5071817;28;20532;-62
2022/08/06 03:00:09;;;;;;;1.70;1.60;;;22.50;65.60;;;;;;5071912;28;20541;-62
2022/08/06 03:02:41;;;;;;;2.63;2.47;;;22.50;65.70;;;;;;5071805;28;20960;-62
2022/08/06 03:05:11;;;;;;;2.30;1.70;;;22.50;65.60;;;;;;5071562;28;20558;-61
2022/08/06 03:07:40;;;;;;;1.50;1.33;;;22.50;65.70;;;;;;5071581;28;20485;-62
2022/08/06 03:10:09;;;;;;;1.70;1.60;;;22.50;65.80;;;;;;5052053;28;20459;-61
2022/08/06 03:12:37;;;;;;;1.43;1.33;;;22.40;66.00;;;;;;5052064;28;20539;-63
2022/08/06 03:15:06;;;;;;;1.70;1.60;;;22.40;66.20;;;;;;5051521;28;20507;-62
2022/08/06 03:17:35;;;;;;;2.83;1.90;;;22.40;66.20;;;;;;5051638;28;20965;-62
2022/08/06 03:20:05;;;;;;;1.73;1.27;;;22.40;66.10;;;;;;5057325;28;20483;-62
2022/08/06 03:22:33;;;;;;;1.53;1.43;;;22.30;66.30;;;;;;5071675;28;20944;-61
2022/08/06 03:25:01;;;;;;;2.10;1.90;;;22.40;66.60;;;;;;5071366;28;20932;-61
2022/08/06 03:27:29;;;;;;;1.53;1.43;;;22.40;66.70;;;;;;5071627;28;20915;-63
2022/08/06 03:29:56;;;;;;;2.00;2.00;;;22.30;66.60;;;;;;5071362;28;20483;-61
2022/08/06 03:32:24;;;;;;;1.70;1.60;;;22.30;66.70;;;;;;5072018;28;20494;-62
2022/08/06 03:34:53;;;;;;;4.73;2.03;;;22.20;66.90;;;;;;5071528;28;20511;-63
2022/08/06 03:37:22;;;;;;;1.40;1.30;;;22.10;67.30;;;;;;5071390;28;20459;-63
2022/08/06 03:39:50;;;;;;;1.67;1.57;;;22.00;67.90;;;;;;5071222;28;20509;-62
2022/08/06 03:42:18;;;;;;;1.70;1.60;;;21.90;68.40;;;;;;5071425;28;20457;-62
2022/08/06 03:44:45;;;;;;;5.60;1.63;;;21.90;68.80;;;;;;5071141;28;20903;-62
2022/08/06 03:47:15;;;;;;;1.77;1.67;;;21.90;69.00;;;;;;5071317;28;20846;-61
2022/08/06 03:49:46;;;;;;;2.70;1.90;;;21.70;69.60;;;;;;5071669;28;20465;-62
2022/08/06 03:52:18;;;;;;;1.30;1.30;;;21.70;70.10;;;;;;5071166;28;20543;-62
2022/08/06 03:54:50;;;;;;;3.20;1.73;;;21.70;70.20;;;;;;5071981;28;21054;-63
2022/08/06 03:57:21;;;;;;;2.80;2.33;;;21.60;70.40;;;;;;5075369;28;20483;-63
2022/08/06 03:59:51;;;;;;;1.83;1.73;;;21.60;70.50;;;;;;5074943;28;20544;-62
2022/08/06 04:02:19;;;;;;;4.80;1.57;;;21.60;70.70;;;;;;5074973;28;20509;-62
2022/08/06 04:04:48;;;;;;;2.00;1.63;;;21.70;70.60;;;;;;5074976;28;20911;-62
2022/08/06 04:07:16;;;;;;;2.23;1.73;;;21.80;70.60;;;;;;5075170;28;20985;-63
2022/08/06 04:09:45;;;;;;;1.43;1.30;;;21.80;70.60;;;;;;5075036;28;20458;-62
2022/08/06 04:12:14;;;;;;;3.30;1.37;;;21.90;70.50;;;;;;5075111;28;20491;-63
2022/08/06 04:14:41;;;;;;;3.70;2.70;;;21.90;70.50;;;;;;5074696;28;20458;-62
2022/08/06 04:17:09;;;;;;;1.70;1.60;;;21.90;70.40;;;;;;5074928;28;20883;-62
2022/08/06 04:19:36;;;;;;;5.10;2.17;;;21.90;70.30;;;;;;5074684;28;20451;-63
2022/08/06 04:22:04;;;;;;;3.00;1.57;;;21.90;70.30;;;;;;5074723;28;20982;-63
2022/08/06 04:24:31;;;;;;;2.50;2.00;;;21.90;70.30;;;;;;5074441;28;20960;-62
2022/08/06 04:27:00;;;;;;;3.13;1.60;;;21.90;70.40;;;;;;5074997;28;20542;-63
2022/08/06 04:29:29;;;;;;;2.80;1.50;;;21.90;70.50;;;;;;5074407;28;20555;-62
2022/08/06 04:31:57;;;;;;;1.73;1.50;;;21.90;70.50;;;;;;5074870;28;20573;-62
2022/08/06 04:34:26;;;;;;;2.00;1.90;;;21.90;70.80;;;;;;5074300;28;20525;-63
2022/08/06 04:36:54;;;;;;;2.03;1.70;;;21.90;70.80;;;;;;5074709;28;20495;-63
2022/08/06 04:39:22;;;;;;;3.10;1.40;;;21.90;71.10;;;;;;5074244;28;20558;-62
2022/08/06 04:41:49;;;;;;;1.40;1.10;;;21.90;71.30;;;;;;5074804;28;20491;-63
2022/08/06 04:44:16;;;;;;;3.00;1.60;;;21.90;71.40;;;;;;5074465;28;20459;-61
2022/08/06 04:46:48;;;;;;;1.73;1.63;;;21.80;71.40;;;;;;5073989;28;20482;-63
2022/08/06 04:49:15;;;;;;;1.50;1.40;;;21.80;71.80;;;;;;5074369;28;20490;-63
2022/08/06 04:51:45;;;;;;;4.27;2.03;;;21.80;72.00;;;;;;5073743;28;20498;-62
2022/08/06 04:54:13;;;;;;;2.03;1.30;;;21.80;72.20;;;;;;5073913;28;20490;-63
2022/08/06 04:56:40;;;;;;;1.70;1.70;;;21.80;72.30;;;;;;5073989;28;20479;-63
2022/08/06 04:59:07;;;;;;;1.90;1.80;;;21.80;72.60;;;;;;5074021;28;20574;-61
2022/08/06 05:01:35;;;;;;;3.00;1.87;;;21.80;72.80;;;;;;5073906;28;20495;-63
2022/08/06 05:04:03;;;;;;;1.67;1.60;;;21.80;72.90;;;;;;5073596;28;20551;-62
2022/08/06 05:06:41;;;;;;;2.67;1.80;;;21.80;72.90;;;;;;5073405;28;21010;-61
2022/08/06 05:09:14;;;;;;;2.00;1.90;;;21.80;73.00;;;;;;5074084;28;20482;-63
2022/08/06 05:11:44;;;;;;;2.80;1.87;;;21.80;73.10;;;;;;5074007;28;20890;-62
2022/08/06 05:14:16;;;;;;;4.20;2.10;;;21.70;73.30;;;;;;5073907;28;20580;-64
2022/08/06 05:16:46;;;;;;;2.33;2.10;;;21.70;73.80;;;;;;5073884;28;20472;-61
2022/08/06 05:19:20;;;;;;;8.33;2.60;;;21.70;74.20;;;;;;5073566;28;20455;-59
2022/08/06 05:21:48;;;;;;;2.83;1.67;;;21.90;83.30;;;;;;5073533;28;20486;-60
2022/08/06 05:24:15;;;;;;;2.20;2.00;;;22.10;79.80;;;;;;5073411;28;20936;-60
2022/08/06 05:26:42;;;;;;;2.00;1.37;;;22.20;76.90;;;;;;5110692;22;20923;-60
2022/08/06 05:29:10;;;;;;;6.20;2.67;;;22.40;75.80;;;;;;5077161;28;20507;-61
2022/08/06 05:31:39;;;;;;;2.83;1.57;;;22.50;75.30;;;;;;5073351;28;20459;-61
2022/08/06 05:34:10;;;;;;;2.10;1.30;;;22.60;74.90;;;;;;5073094;28;20463;-61
2022/08/06 05:36:38;;;;;;;2.17;1.70;;;22.70;74.60;;;;;;5085420;28;20557;-61
2022/08/06 05:39:06;;;;;;;1.70;1.60;;;22.80;74.20;;;;;;5093263;28;20447;-61
2022/08/06 05:41:34;;;;;;;1.30;1.20;;;22.80;73.90;;;;;;5093218;28;20462;-60
2022/08/06 05:44:02;;;;;;;1.40;1.30;;;22.90;73.60;;;;;;5093045;28;20469;-61
2022/08/06 05:46:32;;;;;;;1.10;1.10;;;23.00;73.50;;;;;;5092897;28;20470;-60
2022/08/06 05:49:04;;;;;;;1.50;1.40;;;23.00;73.10;;;;;;5093195;28;20482;-61
2022/08/06 05:51:38;;;;;;;1.50;1.23;;;23.10;73.00;;;;;;5093161;28;20466;-62
2022/08/06 05:54:14;;;;;;;1.77;1.67;;;23.20;72.80;;;;;;5092949;28;20482;-61
2022/08/06 05:56:46;;;;;;;2.50;1.83;;;23.20;72.60;;;;;;5092921;28;20510;-61
2022/08/06 05:59:19;;;;;;;1.47;1.37;;;23.20;72.60;;;;;;5092829;28;20478;-61
2022/08/06 06:01:47;;;;;;;3.27;1.43;;;23.20;72.80;;;;;;5092969;28;20825;-59
2022/08/06 06:04:15;;;;;;;1.70;1.60;;;23.20;73.00;;;;;;5092806;28;20461;-61
2022/08/06 06:06:43;;;;;;;1.33;1.23;;;23.20;73.20;;;;;;5092423;28;21014;-61
2022/08/06 06:09:13;;;;;;;1.80;1.30;;;23.20;73.40;;;;;;5092759;28;20478;-62
2022/08/06 06:11:42;;;;;;;2.10;1.67;;;23.20;73.80;;;;;;5092677;28;20472;-61
2022/08/06 06:14:34;;;;;;;1.67;1.33;;;23.20;74.20;;;;;;5092486;28;20458;-61
2022/08/06 06:17:18;;;;;;;3.23;1.30;;;23.20;74.70;;;;;;5090842;28;20506;-60
2022/08/06 06:19:56;;;;;;;1.30;1.20;;;23.20;75.10;;;;;;5092590;28;20490;-61
2022/08/06 06:22:29;;;;;;;1.37;1.27;;;23.20;75.50;;;;;;5092623;28;20824;-61
2022/08/06 06:25:02;;;;;;;1.37;1.37;;;23.20;75.70;;;;;;5092105;28;20459;-61
2022/08/06 06:27:35;;;;;;;1.10;1.00;;;23.20;75.80;;;;;;5092150;28;20493;-61
2022/08/06 06:30:05;;;;;;;1.40;1.30;;;23.20;75.90;;;;;;5092367;28;20501;-62
2022/08/06 06:32:43;;;;;;;1.27;1.17;;;23.20;76.00;;;;;;5092315;28;20561;-62
2022/08/06 06:35:21;;;;;;;1.60;1.50;;;23.20;76.10;;;;;;5092140;28;20478;-60
2022/08/06 06:37:55;;;;;;;2.23;2.13;;;23.20;76.20;;;;;;5091988;28;20478;-62
2022/08/06 06:40:39;;;;;;;1.83;1.57;;;23.20;76.30;;;;;;5092220;28;20469;-62
2022/08/06 06:43:10;;;;;;;1.20;1.20;;;23.20;76.50;;;;;;5092072;28;20959;-62
2022/08/06 06:45:45;;;;;;;1.43;1.33;;;23.20;76.50;;;;;;5091967;28;20558;-62
2022/08/06 06:48:16;;;;;;;1.40;1.30;;;23.20;76.50;;;;;;5092019;28;20577;-62
2022/08/06 06:50:48;;;;;;;1.13;1.10;;;23.20;76.60;;;;;;5092137;28;20550;-62
2022/08/06 06:53:17;;;;;;;1.70;1.57;;;23.20;76.70;;;;;;5092105;28;20458;-62
2022/08/06 06:55:48;;;;;;;1.17;1.13;;;23.30;76.90;;;;;;5091727;28;20983;-61
2022/08/06 06:58:21;;;;;;;2.43;1.53;;;23.30;76.90;;;;;;5091657;28;20530;-61
2022/08/06 07:00:49;;;;;;;1.30;1.30;;;23.30;76.90;;;;;;5091927;28;20546;-60
2022/08/06 07:03:19;;;;;;;1.23;1.13;;;23.30;76.80;;;;;;5087974;28;20869;-64
2022/08/06 07:05:50;;;;;;;2.07;1.43;;;23.40;80.10;;;;;;5074504;28;20477;-63
2022/08/06 07:08:21;;;;;;;2.50;2.30;;;23.40;79.80;;;;;;5075638;28;20480;-65
2022/08/06 07:10:50;;;;;;;3.47;1.20;;;23.50;79.70;;;;;;5091907;28;20461;-65
2022/08/06 07:13:18;;;;;;;3.00;1.57;;;23.60;79.30;;;;;;5091767;28;20899;-64
2022/08/06 07:15:46;;;;;;;2.77;1.40;;;23.70;79.20;;;;;;5091451;28;20470;-66
2022/08/06 07:18:14;;;;;;;1.47;1.37;;;23.70;79.90;;;;;;5091737;28;20503;-68
2022/08/06 07:20:44;;;;;;;1.37;1.30;;;23.80;79.60;;;;;;5091835;28;20800;-66
2022/08/06 07:23:12;;;;;;;1.27;1.20;;;23.80;78.40;;;;;;5091713;28;20484;-66
2022/08/06 07:25:43;;;;;;;1.43;1.30;;;23.90;78.70;;;;;;5091262;28;20228;-65
2022/08/06 07:28:16;;;;;;;1.83;1.73;;;23.90;79.20;;;;;;5091853;28;20493;-64
2022/08/06 07:30:49;;;;;;;1.00;1.00;;;24.00;77.30;;;;;;5096250;28;20462;-66
2022/08/06 07:33:21;;;;;;;0.97;0.97;;;24.10;76.90;;;;;;5096217;28;20900;-64
2022/08/06 07:35:56;;;;;;;1.47;1.37;;;24.10;76.20;;;;;;5095823;28;20478;-66
2022/08/06 07:38:29;;;;;;;1.00;1.00;;;24.10;75.70;;;;;;5095968;28;20858;-67
2022/08/06 07:41:01;;;;;;;1.40;1.30;;;24.20;77.00;;;;;;5096466;28;20453;-65
2022/08/06 07:43:33;;;;;;;1.13;1.13;;;24.20;75.50;;;;;;5096459;28;20469;-64
2022/08/06 07:46:03;;;;;;;1.27;1.23;;;24.20;74.30;;;;;;5095960;28;20482;-65
2022/08/06 07:48:36;;;;;;;2.40;1.07;;;24.30;74.70;;;;;;5095486;28;20474;-64
2022/08/06 07:51:04;;;;;;;1.57;1.13;;;24.30;73.70;;;;;;5095756;28;20458;-64
2022/08/06 07:53:32;;;;;;;1.27;1.17;;;24.30;73.50;;;;;;5095680;28;20453;-65
2022/08/06 07:55:59;;;;;;;1.93;1.10;;;24.40;73.20;;;;;;5095317;28;20501;-65
2022/08/06 07:58:27;;;;;;;1.43;1.33;;;24.40;72.70;;;;;;5095182;28;20514;-65
2022/08/06 08:00:56;;;;;;;1.10;1.00;;;24.40;72.70;;;;;;5095405;28;20545;-63
2022/08/06 08:06:18;;;;;;;3.17;1.50;;;24.50;71.70;;;;;;5095368;28;20457;-63
2022/08/06 08:08:46;;;;;;;1.00;1.00;;;24.50;72.20;;;;;;5095149;28;20547;-63
2022/08/06 08:11:15;;;;;;;2.03;1.50;;;24.50;72.50;;;;;;5095021;28;20533;-64
2022/08/06 08:13:43;;;;;;;1.20;1.20;;;24.50;72.90;;;;;;5094990;28;20457;-63
2022/08/06 08:16:15;;;;;;;1.00;0.90;;;24.50;71.90;;;;;;5094672;28;20502;-64
2022/08/06 08:18:42;;;;;;;1.10;1.10;;;24.60;71.90;;;;;;5094962;28;20525;-64
2022/08/06 08:21:11;;;;;;;0.80;0.77;;;24.60;71.30;;;;;;5094539;28;20881;-64
2022/08/06 08:23:40;;;;;;;1.07;1.07;;;24.60;71.40;;;;;;5093777;28;20454;-59
2022/08/06 08:26:07;;;;;;;1.10;1.00;;;24.60;71.70;;;;;;5094185;28;20484;-65
2022/08/06 08:28:35;;;;;;;0.90;0.90;;;24.60;70.70;;;;;;5094967;28;20577;-64
2022/08/06 08:31:07;;;;;;;0.90;0.90;;;24.70;71.50;;;;;;5094980;28;20853;-64
2022/08/06 08:33:36;;;;;;;0.80;0.80;;;24.70;71.30;;;;;;5094922;28;20519;-66
2022/08/06 08:36:04;;;;;;;1.30;1.30;;;24.70;71.50;;;;;;5094265;28;20474;-66
2022/08/06 08:38:33;;;;;;;0.93;0.93;;;24.70;71.20;;;;;;5094896;28;20457;-62
2022/08/06 08:41:03;;;;;;;1.80;0.90;;;24.70;71.10;;;;;;5093998;28;20454;-64
2022/08/06 08:43:36;;;;;;;0.80;0.80;;;24.70;71.10;;;;;;5094591;28;20450;-64
2022/08/06 08:46:05;;;;;;;1.10;1.10;;;24.70;71.50;;;;;;5094858;28;20487;-65
2022/08/06 08:48:32;;;;;;;1.90;0.87;;;24.70;71.80;;;;;;5095035;28;20539;-65
2022/08/06 08:51:01;;;;;;;0.87;0.80;;;24.80;70.90;;;;;;5094730;28;20464;-64
2022/08/06 08:53:36;;;;;;;0.90;0.90;;;24.80;70.60;;;;;;5094121;28;20478;-64
2022/08/06 08:56:04;;;;;;;1.13;1.13;;;24.80;70.90;;;;;;5093937;28;20912;-64
2022/08/06 08:58:36;;;;;;;1.00;1.00;;;24.80;70.90;;;;;;5094281;28;20511;-62
2022/08/06 09:01:08;;;;;;;0.90;0.90;;;24.80;71.00;;;;;;5094284;28;20959;-64
2022/08/06 09:03:36;;;;;;;0.70;0.70;;;24.80;70.30;;;;;;5093851;28;20512;-64
2022/08/06 09:06:05;;;;;;;1.47;1.30;;;24.90;70.30;;;;;;5093750;28;20506;-64
2022/08/06 09:08:33;;;;;;;1.87;1.03;;;24.90;71.90;;;;;;5093926;28;20849;-64
2022/08/06 09:11:00;;;;;;;2.93;0.93;;;24.90;71.00;;;;;;5093921;28;20955;-63
2022/08/06 09:13:27;;;;;;;1.70;0.90;;;24.90;71.40;;;;;;5093921;28;20489;-66
2022/08/06 09:15:55;;;;;;;1.43;1.00;;;24.90;70.20;;;;;;5093927;28;20523;-61
2022/08/06 09:18:23;;;;;;;1.90;0.90;;;24.90;70.90;;;;;;5088651;28;20486;-64
2022/08/06 09:20:50;;;;;;;0.70;0.70;;;24.90;70.30;;;;;;5093876;28;20509;-67
2022/08/06 09:23:19;;;;;;;0.80;0.80;;;25.00;70.20;;;;;;5093706;28;20457;-65
2022/08/06 09:25:48;;;;;;;1.07;0.80;;;24.90;70.40;;;;;;5093304;28;20543;-70
2022/08/06 09:28:29;;;;;;;0.90;0.90;;;24.90;70.50;;;;;;5093669;28;20454;-64
2022/08/06 09:31:00;;;;;;;1.13;0.70;;;24.90;70.90;;;;;;5093702;28;20450;-63
2022/08/06 09:33:27;;;;;;;1.10;1.00;;;24.90;72.00;;;;;;5093686;28;20545;-60
